Dades meteomassalio
Diari Summary for Juny 16, 2017 Units:  Metric    English   Both
« Previous Day
Next Day »
Diari Semanal Mensual Anual Personalitzat
  Maxima: Minima: Mijana:
Temperatura: -17.8 °C -6.2 °C -2.1 °C
Rosada: -17.8 °C -11.3 °C -8.8 °C
Humitat: Humidity % 23 % 50 %
Velocitat del vent: 0 km/h 0 km/h 9.5 km/h
Racha vent: 0 km/h - -
Vent:- - South
Pressio: 0 hPa 34384.8 hPa -
Pluja: 0 mm    
Historical Graphs
 
 
Tabular Data for Juny 16, 2017
Time Temperature Dew Point Pressure Wind Wind Speed Wind Gust Humidity Rainfall Rate (Hourly) solar Conditions
-17.8 °C -17.8 °C 0 hPa Calm     Humidity % 0 mm SolarRadiationWatts/m^2 W/m2 Conditions
00:02 -2.8 °C -7.9 °C 34476.3 hPa Calm     57 % 0 mm 0.0 W/m2 CLR
00:07 -2.8 °C -7.8 °C 34476.3 hPa Calm     58 % 0 mm 0.0 W/m2 CLR
00:12 -2.7 °C -7.9 °C 34476.3 hPa Calm     57 % 0 mm 0.0 W/m2 CLR
00:17 -2.7 °C -7.8 °C 34476.3 hPa NW 9 km/h 9 km/h 57 % 0 mm 0.0 W/m2 CLR
00:22 -2.6 °C -7.8 °C 34476.3 hPa NW 15.6 km/h 15.6 km/h 57 % 0 mm 0.0 W/m2 CLR
00:27 -2.6 °C -7.9 °C 34476.3 hPa WNW 20.9 km/h 20.9 km/h 56 % 0 mm 0.0 W/m2 CLR
00:32 -2.6 °C -7.9 °C 34476.3 hPa NW 11.9 km/h 11.9 km/h 56 % 0 mm 0.0 W/m2 CLR
00:37 -2.6 °C -8.2 °C 34476.3 hPa NNW 32.8 km/h 32.8 km/h 54 % 0 mm 0.0 W/m2 CLR
00:42 -2.4 °C -8.3 °C 34476.3 hPa NW 11.9 km/h 11.9 km/h 53 % 0 mm 0.0 W/m2 CLR
00:47 -2.4 °C -8.4 °C 34476.3 hPa NNW 26.9 km/h 26.9 km/h 52 % 0 mm 0.0 W/m2 CLR
00:52 -2.4 °C -8.5 °C 34476.3 hPa North 15.6 km/h 15.6 km/h 51 % 0 mm 0.0 W/m2 CLR
00:57 -2.4 °C -8.4 °C 34476.3 hPa NNW 29.8 km/h 29.8 km/h 52 % 0 mm 0.0 W/m2 CLR
00:58 -2.4 °C -8.4 °C 34476.3 hPa North 20.9 km/h 20.9 km/h 52 % 0 mm 0.0 W/m2 CLR
01:03 -2.4 °C -8.4 °C 34476.3 hPa North 20.9 km/h 20.9 km/h 52 % 0 mm 0.0 W/m2 CLR
01:08 -2.5 °C -8.4 °C 34476.3 hPa NNW 20.8 km/h 20.8 km/h 52 % 0 mm 0.0 W/m2 CLR
01:13 -2.6 °C -8.4 °C 34476.3 hPa NNW 17.9 km/h 17.9 km/h 53 % 0 mm 0.0 W/m2 CLR
01:18 -2.7 °C -8.3 °C 34476.3 hPa NNW 9 km/h 9 km/h 54 % 0 mm 0.0 W/m2 CLR
01:23 -2.7 °C -8.4 °C 34486.4 hPa NW 9 km/h 9 km/h 54 % 0 mm 0.0 W/m2 CLR
01:28 -2.9 °C -8.3 °C 34486.4 hPa WNW 9 km/h 9 km/h 55 % 0 mm 0.0 W/m2 CLR
01:33 -3.1 °C -8.3 °C 34486.4 hPa WNW 12.9 km/h 12.9 km/h 56 % 0 mm 0.0 W/m2 CLR
01:38 -3.2 °C -8.3 °C 34486.4 hPa WNW 20.9 km/h 20.9 km/h 57 % 0 mm 0.0 W/m2 CLR
01:43 -3.3 °C -8.2 °C 34486.4 hPa West 17.9 km/h 17.9 km/h 58 % 0 mm 0.0 W/m2 CLR
01:48 -3.3 °C -8.2 °C 34486.4 hPa West 11.9 km/h 11.9 km/h 58 % 0 mm 0.0 W/m2 CLR
01:53 -3.3 °C -8.3 °C 34486.4 hPa West 17.9 km/h 17.9 km/h 58 % 0 mm 0.0 W/m2 CLR
01:58 -3.3 °C -8.3 °C 34476.3 hPa WSW 15 km/h 15 km/h 58 % 0 mm 0.0 W/m2 CLR
02:03 -3.4 °C -8.3 °C 34476.3 hPa Calm     58 % 0 mm 0.0 W/m2 CLR
02:04 -3.4 °C -8.3 °C 34476.3 hPa Calm     58 % 0 mm 0.0 W/m2 CLR
02:09 -3.4 °C -8.2 °C 34476.3 hPa Calm     59 % 0 mm 0.0 W/m2 CLR
02:14 -3.6 °C -8.3 °C 34486.4 hPa Calm     59 % 0 mm 0.0 W/m2 CLR
02:19 -3.7 °C -8.3 °C 34486.4 hPa SW 9 km/h 9 km/h 60 % 0 mm 0.0 W/m2 CLR
02:24 -3.8 °C -8.3 °C 34486.4 hPa West 12.9 km/h 12.9 km/h 61 % 0 mm 0.0 W/m2 CLR
02:29 -3.9 °C -8.4 °C 34486.4 hPa Calm     61 % 0 mm 0.0 W/m2 CLR
02:34 -3.9 °C -8.3 °C 34486.4 hPa Calm     62 % 0 mm 0.0 W/m2 CLR
02:39 -4.1 °C -8.4 °C 34486.4 hPa West 6 km/h 6 km/h 62 % 0 mm 0.0 W/m2 CLR
02:44 -4.1 °C -8.3 °C 34486.4 hPa West 3.1 km/h 3.1 km/h 63 % 0 mm 0.0 W/m2 CLR
02:49 -4.2 °C -8.4 °C 34486.4 hPa Calm     63 % 0 mm 0.0 W/m2 CLR
02:54 -4.3 °C -8.5 °C 34486.4 hPa Calm     63 % 0 mm 0.0 W/m2 CLR
02:59 -4.4 °C -8.4 °C 34486.4 hPa WSW 9 km/h 9 km/h 64 % 0 mm 0.0 W/m2 CLR
03:04 -4.6 °C -8.4 °C 34486.4 hPa West 3.1 km/h   65 % 0 mm 0.0 W/m2 CLR
03:09 -4.7 °C -8.5 °C 34486.4 hPa WNW 3.1 km/h   65 % 0 mm 0.0 W/m2 CLR
03:14 -4.7 °C -8.6 °C 34486.4 hPa Calm     65 % 0 mm 0.0 W/m2 CLR
03:19 -4.8 °C -8.5 °C 34486.4 hPa Calm     66 % 0 mm 0.0 W/m2 CLR
03:24 -4.8 °C -8.6 °C 34486.4 hPa West 3.1 km/h   66 % 0 mm 0.0 W/m2 CLR
03:29 -4.8 °C -8.6 °C 34486.4 hPa Calm     66 % 0 mm 0.0 W/m2 CLR
03:34 -4.9 °C -8.7 °C 34496.6 hPa NW 17.9 km/h 17.9 km/h 66 % 0 mm 0.0 W/m2 CLR
03:39 -4.9 °C -8.6 °C 34496.6 hPa West 17.9 km/h 17.9 km/h 67 % 0 mm 0.0 W/m2 CLR
03:44 -5 °C -8.6 °C 34486.4 hPa Calm     67 % 0 mm 0.0 W/m2 CLR
03:49 -5.1 °C -8.7 °C 34496.6 hPa WSW 18.2 km/h 18.2 km/h 67 % 0 mm 0.0 W/m2 CLR
03:50 -5.1 °C -8.8 °C 34496.6 hPa WSW 17.9 km/h 17.9 km/h 66 % 0 mm 0.0 W/m2 CLR
03:55 -5.1 °C -8.7 °C 34486.4 hPa Calm     67 % 0 mm 0.0 W/m2 CLR
04:00 -5.2 °C -8.7 °C 34496.6 hPa SW 6 km/h 6 km/h 67 % 0 mm 0.0 W/m2 CLR
04:05 -5.2 °C -8.7 °C 34496.6 hPa WSW 15 km/h 15 km/h 67 % 0 mm 0.0 W/m2 CLR
04:06 -5.2 °C -8.7 °C 34496.6 hPa WSW 15 km/h 15 km/h 67 % 0 mm 0.0 W/m2 CLR
04:11 -5.2 °C -8.8 °C 34486.4 hPa West 9 km/h 9 km/h 67 % 0 mm 0.0 W/m2 CLR
04:16 -5.2 °C -8.8 °C 34486.4 hPa West 11.9 km/h 11.9 km/h 67 % 0 mm 0.0 W/m2 CLR
04:21 -5.2 °C -8.7 °C 34486.4 hPa WSW 9 km/h 9 km/h 68 % 0 mm 0.0 W/m2 CLR
04:26 -5.3 °C -8.7 °C 34496.6 hPa West 15.6 km/h 15.6 km/h 68 % 0 mm 0.0 W/m2 CLR
04:31 -5.3 °C -8.9 °C 34486.4 hPa WSW 23.3 km/h 23.3 km/h 67 % 0 mm 0.0 W/m2 CLR
04:36 -5.3 °C -8.8 °C 34496.6 hPa West 20.9 km/h 20.9 km/h 68 % 0 mm 0.0 W/m2 CLR
04:41 -5.4 °C -8.8 °C 34496.6 hPa West 17.9 km/h 17.9 km/h 68 % 0 mm 0.0 W/m2 CLR
04:46 -5.4 °C -8.8 °C 34496.6 hPa West 23.3 km/h 23.3 km/h 68 % 0 mm 0.0 W/m2 CLR
04:51 -5.4 °C -8.9 °C 34496.6 hPa SW 11.9 km/h 11.9 km/h 68 % 0 mm 0.0 W/m2 CLR
04:56 -5.5 °C -8.8 °C 34496.6 hPa West 23.8 km/h 23.8 km/h 69 % 0 mm 0.0 W/m2 CLR
05:01 -5.6 °C -9 °C 34496.6 hPa WSW 29.8 km/h 29.8 km/h 68 % 0 mm 0.0 W/m2 CLR
05:06 -5.6 °C -9 °C 34496.6 hPa West 11.9 km/h 11.9 km/h 68 % 0 mm 0.0 W/m2 CLR
05:11 -5.6 °C -9.1 °C 34486.4 hPa Calm     68 % 0 mm 0.0 W/m2 CLR
05:16 -5.7 °C -9.1 °C 34486.4 hPa Calm     68 % 0 mm 0.0 W/m2 CLR
05:21 -5.7 °C -9 °C 34496.6 hPa Calm     69 % 0 mm 0.0 W/m2 CLR
05:26 -5.7 °C -9 °C 34496.6 hPa Calm     69 % 0 mm 0.0 W/m2 CLR
05:31 -5.7 °C -9.1 °C 34496.6 hPa SSW 11.9 km/h 11.9 km/h 69 % 0 mm 0.0 W/m2 CLR
05:36 -5.8 °C -9.1 °C 34496.6 hPa WSW 15 km/h 15 km/h 69 % 0 mm 0.0 W/m2 CLR
05:41 -5.9 °C -9.2 °C 34496.6 hPa WSW 18.2 km/h 18.2 km/h 69 % 0 mm 0.0 W/m2 CLR
05:46 -5.8 °C -9 °C 34486.4 hPa SW 11.9 km/h 11.9 km/h 70 % 0 mm 0.0 W/m2 CLR
05:47 -5.9 °C -9.1 °C 34486.4 hPa SW 11.9 km/h 11.9 km/h 70 % 0 mm 0.0 W/m2 CLR
05:52 -5.9 °C -9.1 °C 34486.4 hPa SW 20.9 km/h 20.9 km/h 70 % 0 mm 0.0 W/m2 CLR
05:57 -5.9 °C -9.1 °C 34486.4 hPa WSW 15.6 km/h 15.6 km/h 70 % 0 mm 0.0 W/m2 CLR
06:02 -5.9 °C -9.1 °C 34486.4 hPa Calm     70 % 0 mm 0.0 W/m2 CLR
06:07 -5.9 °C -9.1 °C 34486.4 hPa Calm     70 % 0 mm 0.0 W/m2 CLR
06:12 -5.9 °C -9.1 °C 34486.4 hPa Calm     70 % 0 mm 0.0 W/m2 CLR
06:17 -5.9 °C -9.1 °C 34486.4 hPa Calm     70 % 0 mm 0.0 W/m2 OVC
06:22 -5.9 °C -9.1 °C 34476.3 hPa Calm     70 % 0 mm 0.0 W/m2 OVC
06:27 -5.9 °C -9.1 °C 34486.4 hPa Calm     70 % 0 mm 5.0 W/m2 OVC
06:32 -5.9 °C -9.1 °C 34496.6 hPa Calm     70 % 0 mm 7.0 W/m2 BKN
06:37 -6 °C -9.1 °C 34496.6 hPa Calm     70 % 0 mm 9.0 W/m2 BKN
06:42 -6 °C -9.2 °C 34496.6 hPa Calm     70 % 0 mm 11.0 W/m2 BKN
06:47 -6.1 °C -9.1 °C 34496.6 hPa Calm     71 % 0 mm 14.0 W/m2 BKN
06:52 -6.2 °C -9.1 °C 34496.6 hPa Calm     72 % 0 mm 18.0 W/m2 BKN
06:57 -6.1 °C -9.1 °C 34510.1 hPa Calm     71 % 0 mm 21.0 W/m2 BKN
07:02 -6.1 °C -8.9 °C 34510.1 hPa Calm     72 % 0 mm 26.0 W/m2 BKN
07:07 -6.1 °C -9 °C 34510.1 hPa Calm     72 % 0 mm 30.0 W/m2 BKN
07:12 -6.2 °C -9.1 °C 34510.1 hPa Calm     72 % 0 mm 33.0 W/m2 BKN
07:17 -6.2 °C -8.9 °C 34510.1 hPa Calm     73 % 0 mm 39.0 W/m2 BKN
07:22 -6.2 °C -9 °C 34510.1 hPa Calm     73 % 0 mm 44.0 W/m2 BKN
07:27 -6.2 °C -8.9 °C 34510.1 hPa Calm     73 % 0 mm 51.0 W/m2 BKN
07:32 -6.2 °C -8.8 °C 34510.1 hPa Calm     74 % 0 mm 60.0 W/m2 SCT
07:37 -6.2 °C -8.9 °C 34520.3 hPa Calm     73 % 0 mm 67.0 W/m2 SCT
07:42 -6.2 °C -8.8 °C 34520.3 hPa Calm     74 % 0 mm 74.0 W/m2 FEW
07:47 -6.2 °C -8.9 °C 34520.3 hPa Calm     74 % 0 mm 83.0 W/m2 FEW
07:52 -6.2 °C -8.9 °C 34520.3 hPa Calm     74 % 0 mm 90.0 W/m2 FEW
07:57 -6.2 °C -8.8 °C 34520.3 hPa Calm     74 % 0 mm 98.0 W/m2 CLR
08:02 -6.2 °C -8.8 °C 34520.3 hPa Calm     74 % 0 mm 104.0 W/m2 CLR
08:07 -6.1 °C -8.8 °C 34520.3 hPa Calm     74 % 0 mm 111.0 W/m2 CLR
08:12 -6 °C -8.7 °C 34520.3 hPa Calm     74 % 0 mm 120.0 W/m2 CLR
08:17 -5.9 °C -8.7 °C 34520.3 hPa Calm     73 % 0 mm 127.0 W/m2 CLR
08:22 -5.8 °C -8.6 °C 34520.3 hPa Calm     73 % 0 mm 137.0 W/m2 CLR
08:27 -5.7 °C -8.7 °C 34520.3 hPa Calm   0.3 km/h 72 % 0 mm 153.0 W/m2 CLR
08:32 -5.6 °C -8.7 °C 34520.3 hPa Calm     71 % 0 mm 178.0 W/m2 CLR
08:37 -5.5 °C -8.6 °C 34520.3 hPa Calm     71 % 0 mm 192.0 W/m2 CLR
08:42 -5.4 °C -8.6 °C 34520.3 hPa Calm   0.3 km/h 70 % 0 mm 216.0 W/m2 CLR
08:47 -5.2 °C -8.5 °C 34520.3 hPa WSW 10.3 km/h 10.3 km/h 69 % 0 mm 227.0 W/m2 CLR
08:52 -5.1 °C -8.5 °C 34520.3 hPa Calm     68 % 0 mm 220.0 W/m2 CLR
08:57 -4.9 °C -8.5 °C 34520.3 hPa Calm     67 % 0 mm 232.0 W/m2 CLR
09:02 -4.8 °C -8.4 °C 34520.3 hPa Calm     67 % 0 mm 246.0 W/m2 CLR
09:07 -4.7 °C -8.4 °C 34533.8 hPa NNW 9 km/h 9 km/h 66 % 0 mm 279.0 W/m2 CLR
09:13 -4.6 °C -8.6 °C 34533.8 hPa NW 20.9 km/h 20.9 km/h 64 % 0 mm 315.0 W/m2 CLR
09:18 -4.5 °C -8.5 °C 34533.8 hPa WNW 23.8 km/h 23.8 km/h 64 % 0 mm 287.0 W/m2 CLR
09:23 -4.5 °C -8.5 °C 34533.8 hPa NNW 17.9 km/h 17.9 km/h 64 % 0 mm 330.0 W/m2 CLR
09:28 -4.4 °C -8.4 °C 34533.8 hPa NW 20.9 km/h 20.9 km/h 64 % 0 mm 355.0 W/m2 CLR
09:33 -4.4 °C -8.4 °C 34533.8 hPa WNW 5.1 km/h 5.1 km/h 64 % 0 mm 392.0 W/m2 CLR
09:38 -4.3 °C -8.4 °C 34533.8 hPa NNW 20.9 km/h 20.9 km/h 63 % 0 mm 404.0 W/m2 CLR
09:43 -4.3 °C -8.4 °C 34533.8 hPa NW 20.8 km/h 20.8 km/h 63 % 0 mm 432.0 W/m2 CLR
09:48 -4.2 °C -8.5 °C 34533.8 hPa WNW 17.9 km/h 17.9 km/h 62 % 0 mm 471.0 W/m2 CLR
09:53 -4.1 °C -8.4 °C 34533.8 hPa NNW 17.9 km/h 17.9 km/h 62 % 0 mm 499.0 W/m2 CLR
09:58 -4.1 °C -8.4 °C 34533.8 hPa NW 15.6 km/h 15.6 km/h 62 % 0 mm 482.0 W/m2 CLR
10:03 -3.9 °C -8.4 °C 34533.8 hPa NW 12.9 km/h 12.9 km/h 61 % 0 mm 494.0 W/m2 CLR
10:08 -3.8 °C -8.4 °C 34533.8 hPa North 11.9 km/h 11.9 km/h 60 % 0 mm 548.0 W/m2 CLR
10:13 -3.7 °C -8.3 °C 34533.8 hPa Calm     60 % 0 mm 571.0 W/m2 CLR
10:18 -3.5 °C -8.3 °C 34533.8 hPa North 9 km/h 9 km/h 59 % 0 mm 591.0 W/m2 CLR
10:23 -3.4 °C -8.3 °C 34533.8 hPa Calm     58 % 0 mm 596.0 W/m2 CLR
10:28 -3.2 °C -8.1 °C 34533.8 hPa Calm     59 % 0 mm 450.0 W/m2 CLR
10:33 -3 °C -8.3 °C 34533.8 hPa Calm     56 % 0 mm 455.0 W/m2 CLR
10:38 -2.9 °C -8.3 °C 34533.8 hPa NNE 3.1 km/h 3.1 km/h 55 % 0 mm 589.0 W/m2 CLR
10:43 -2.8 °C -8.3 °C 34533.8 hPa NW 15 km/h 15 km/h 55 % 0 mm 568.0 W/m2 CLR
10:48 -2.8 °C -8.2 °C 34533.8 hPa North 18.2 km/h 18.2 km/h 55 % 0 mm 547.0 W/m2 CLR
10:53 -2.7 °C -8.2 °C 34533.8 hPa WNW 17.9 km/h 17.9 km/h 55 % 0 mm 582.0 W/m2 CLR
10:58 -2.7 °C -8.3 °C 34533.8 hPa WNW 12.9 km/h 12.9 km/h 54 % 0 mm 617.0 W/m2 CLR
11:03 -2.6 °C -8.2 °C 34533.8 hPa North 3.1 km/h   54 % 0 mm 687.0 W/m2 CLR
11:08 -2.5 °C -8.1 °C 34533.8 hPa NNW 12.9 km/h 12.9 km/h 54 % 0 mm 671.0 W/m2 CLR
11:13 -2.5 °C -8.1 °C 34533.8 hPa North 18.2 km/h 18.2 km/h 54 % 0 mm 684.0 W/m2 CLR
11:18 -2.4 °C -8.1 °C 34533.8 hPa NNW 17.9 km/h 17.9 km/h 54 % 0 mm 708.0 W/m2 CLR
11:23 -2.4 °C -8 °C 34533.8 hPa NE 20.9 km/h 20.9 km/h 54 % 0 mm 742.0 W/m2 CLR
11:28 -2.3 °C -8.1 °C 34533.8 hPa NNE 7.7 km/h 7.7 km/h 53 % 0 mm 751.0 W/m2 CLR
11:33 -2.2 °C -8.1 °C 34520.3 hPa ENE 11.9 km/h   53 % 0 mm 765.0 W/m2 CLR
11:38 -2.1 °C -8.1 °C 34533.8 hPa Calm     52 % 0 mm 782.0 W/m2 CLR
11:43 -1.8 °C -7.9 °C 34520.3 hPa NE 6 km/h 6 km/h 52 % 0 mm 791.0 W/m2 CLR
11:48 -1.7 °C -7.9 °C 34533.8 hPa ENE 10.3 km/h 10.3 km/h 51 % 0 mm 793.0 W/m2 CLR
11:53 -1.6 °C -7.8 °C 34520.3 hPa East 9 km/h 9 km/h 51 % 0 mm 805.0 W/m2 CLR
11:58 -1.8 °C -7.9 °C 34520.3 hPa North 11.9 km/h 11.9 km/h 51 % 0 mm 812.0 W/m2 CLR
12:03 -1.7 °C -8.1 °C 34520.3 hPa ENE 26.9 km/h 26.9 km/h 50 % 0 mm 824.0 W/m2 CLR
12:08 -1.6 °C -7.6 °C 34520.3 hPa NE 20.8 km/h 20.8 km/h 52 % 0 mm 828.0 W/m2 CLR
12:13 -1.6 °C -7.9 °C 34520.3 hPa ENE 15 km/h 15 km/h 50 % 0 mm 838.0 W/m2 CLR
12:18 -1.5 °C -7.9 °C 34520.3 hPa NNE 18.2 km/h 18.2 km/h 50 % 0 mm 846.0 W/m2 CLR
12:23 -1.5 °C -7.9 °C 34520.3 hPa NE 9 km/h 9 km/h 50 % 0 mm 851.0 W/m2 CLR
12:28 -1.4 °C -8 °C 34520.3 hPa ENE 20.9 km/h 20.9 km/h 49 % 0 mm 860.0 W/m2 CLR
12:33 -1.4 °C -7.8 °C 34520.3 hPa ENE 20.9 km/h 20.9 km/h 50 % 0 mm 867.0 W/m2 CLR
12:38 -1.3 °C -7.9 °C 34520.3 hPa East 15 km/h 15 km/h 49 % 0 mm 872.0 W/m2 CLR
12:43 -1.2 °C -8 °C 34520.3 hPa ENE 12.9 km/h 12.9 km/h 48 % 0 mm 879.0 W/m2 CLR
12:48 -1.3 °C -7.8 °C 34520.3 hPa East 17.9 km/h 17.9 km/h 49 % 0 mm 886.0 W/m2 CLR
12:53 -1.1 °C -7.7 °C 34510.1 hPa East 10.3 km/h 10.3 km/h 49 % 0 mm 889.0 W/m2 CLR
12:58 -1.1 °C -8.1 °C 34520.3 hPa East 11.9 km/h 11.9 km/h 47 % 0 mm 895.0 W/m2 CLR
13:03 -1.2 °C -7.9 °C 34510.1 hPa ENE 11.9 km/h 11.9 km/h 48 % 0 mm 898.0 W/m2 CLR
13:08 -1.1 °C -8 °C 34510.1 hPa ENE 29.8 km/h 29.8 km/h 47 % 0 mm 904.0 W/m2 CLR
13:12 -0.9 °C -7.9 °C 34510.1 hPa ENE 17.9 km/h 17.9 km/h 47 % 0 mm 909.0 W/m2 CLR
13:17 -0.9 °C -8.1 °C 34510.1 hPa ENE 17.9 km/h 17.9 km/h 46 % 0 mm 911.0 W/m2 CLR
13:22 -0.7 °C -7.9 °C 34510.1 hPa ENE 15 km/h 15 km/h 46 % 0 mm 916.0 W/m2 CLR
13:27 -0.7 °C -7.9 °C 34510.1 hPa ENE 11.9 km/h 11.9 km/h 46 % 0 mm 919.0 W/m2 CLR
13:32 -0.6 °C -8 °C 34510.1 hPa ENE 18.2 km/h 18.2 km/h 45 % 0 mm 919.0 W/m2 CLR
13:38 -0.7 °C -8.1 °C 34496.6 hPa ENE 10.3 km/h 10.3 km/h 45 % 0 mm 923.0 W/m2 CLR
13:48 -0.5 °C -8.1 °C 34496.6 hPa East 9 km/h 9 km/h 44 % 0 mm 926.0 W/m2 CLR
13:53 -0.5 °C -8.1 °C 34496.6 hPa SSE 17.9 km/h 17.9 km/h 44 % 0 mm 928.0 W/m2 CLR
13:58 -0.4 °C -8 °C 34496.6 hPa ENE 15 km/h 15 km/h 44 % 0 mm 926.0 W/m2 CLR
14:03 -0.2 °C -8 °C 34496.6 hPa ENE 23.8 km/h 23.8 km/h 43 % 0 mm 928.0 W/m2 CLR
14:08 -0.1 °C -8.1 °C 34486.4 hPa ENE 17.9 km/h 17.9 km/h 42 % 0 mm 926.0 W/m2 CLR
14:13 -0.1 °C -7.9 °C 34486.4 hPa NE 17.9 km/h 17.9 km/h 43 % 0 mm 928.0 W/m2 CLR
14:18 0.1 °C -8 °C 34486.4 hPa Calm     42 % 0 mm 925.0 W/m2 CLR
14:23 0.3 °C -7.9 °C 34486.4 hPa Calm     41 % 0 mm 923.0 W/m2 CLR
14:28 0.5 °C -8 °C 34486.4 hPa East 9 km/h 9 km/h 40 % 0 mm 921.0 W/m2 CLR
14:29 0.6 °C -8.2 °C 34486.4 hPa East 9 km/h 9 km/h 39 % 0 mm 919.0 W/m2 CLR
14:34 0.4 °C -8.2 °C 34486.4 hPa ENE 15 km/h 15 km/h 40 % 0 mm 918.0 W/m2 CLR
14:39 0.4 °C -8.1 °C 34476.3 hPa SE 3.1 km/h 3.1 km/h 40 % 0 mm 916.0 W/m2 CLR
14:41 0.5 °C -8.1 °C 34476.3 hPa ENE 9 km/h 9 km/h 40 % 0 mm 911.0 W/m2 CLR
14:46 0.6 °C -8.2 °C 34476.3 hPa NE 17.9 km/h 17.9 km/h 39 % 0 mm 911.0 W/m2 CLR
14:51 0.7 °C -8.3 °C 34476.3 hPa ENE 9 km/h 9 km/h 38 % 0 mm 909.0 W/m2 CLR
14:56 0.7 °C -8.1 °C 34476.3 hPa ENE 9 km/h 9 km/h 39 % 0 mm 907.0 W/m2 CLR
15:01 0.8 °C -8.2 °C 34476.3 hPa NE 20.9 km/h 20.9 km/h 38 % 0 mm 902.0 W/m2 CLR
15:06 0.9 °C -8.2 °C 34462.7 hPa ENE 15 km/h 15 km/h 38 % 0 mm 898.0 W/m2 CLR
15:11 1 °C -8.3 °C 34462.7 hPa East 11.9 km/h 11.9 km/h 37 % 0 mm 886.0 W/m2 CLR
15:16 1.1 °C -8.2 °C 34462.7 hPa ENE 23.8 km/h 23.8 km/h 37 % 0 mm 888.0 W/m2 CLR
15:21 1 °C -8.3 °C 34462.7 hPa ENE 11.9 km/h 11.9 km/h 37 % 0 mm 879.0 W/m2 CLR
15:26 1.1 °C -8.2 °C 34462.7 hPa Calm     37 % 0 mm 874.0 W/m2 CLR
15:31 1.2 °C -8.1 °C 34452.6 hPa ENE 18.2 km/h 18.2 km/h 37 % 0 mm 868.0 W/m2 CLR
15:36 1.2 °C -8.4 °C 34452.6 hPa ENE 26.9 km/h 26.9 km/h 36 % 0 mm 863.0 W/m2 CLR
15:41 1.1 °C -8.4 °C 34452.6 hPa NE 17.9 km/h 17.9 km/h 36 % 0 mm 853.0 W/m2 CLR
15:42 1.1 °C -8.5 °C 34452.6 hPa ENE 11.9 km/h 11.9 km/h 36 % 0 mm 853.0 W/m2 CLR
15:47 1.1 °C -8.4 °C 34452.6 hPa Calm     36 % 0 mm 842.0 W/m2 CLR
15:52 1.3 °C -8.6 °C 34452.6 hPa NNE 23.8 km/h 23.8 km/h 35 % 0 mm 838.0 W/m2 CLR
15:57 1.5 °C -8.4 °C 34452.6 hPa NNE 9 km/h 9 km/h 35 % 0 mm 831.0 W/m2 CLR
16:02 1.6 °C -8.7 °C 34442.4 hPa ENE 20.9 km/h 20.9 km/h 33 % 0 mm 823.0 W/m2 CLR
16:07 1.6 °C -8.6 °C 34442.4 hPa ENE 9 km/h 9 km/h 34 % 0 mm 814.0 W/m2 CLR
16:09 1.5 °C -8.6 °C 34442.4 hPa East 11.9 km/h 11.9 km/h 34 % 0 mm 810.0 W/m2 CLR
16:14 1.4 °C -8.9 °C 34442.4 hPa ENE 20.9 km/h 20.9 km/h 33 % 0 mm 802.0 W/m2 CLR
16:19 1.4 °C -8.7 °C 34442.4 hPa ENE 32.8 km/h 32.8 km/h 34 % 0 mm 793.0 W/m2 CLR
16:24 1.5 °C -8.8 °C 34442.4 hPa NE 23.8 km/h 23.8 km/h 33 % 0 mm 782.0 W/m2 CLR
16:29 1.6 °C -8.8 °C 34428.8 hPa East 12.9 km/h 12.9 km/h 33 % 0 mm 766.0 W/m2 CLR
16:34 1.6 °C -8.8 °C 34428.8 hPa ENE 9 km/h 9 km/h 33 % 0 mm 759.0 W/m2 CLR
16:39 1.6 °C -9 °C 34428.8 hPa ENE 15 km/h 15 km/h 32 % 0 mm 751.0 W/m2 CLR
16:44 1.8 °C -9.2 °C 34428.8 hPa NE 6 km/h 6 km/h 31 % 0 mm 744.0 W/m2 CLR
16:49 2 °C -8.9 °C 34428.8 hPa NE 6 km/h 6 km/h 31 % 0 mm 729.0 W/m2 CLR
16:54 2.2 °C -8.8 °C 34418.7 hPa NNE 29.8 km/h 29.8 km/h 31 % 0 mm 721.0 W/m2 CLR
16:59 2.3 °C -9.9 °C 34418.7 hPa NNE 2.6 km/h   27 % 0 mm 708.0 W/m2 CLR
17:04 2.4 °C -9.8 °C 34418.7 hPa NW 6 km/h 6 km/h 27 % 0 mm 700.0 W/m2 CLR
17:09 2.4 °C -9.8 °C 34418.7 hPa ENE 15.6 km/h 15.6 km/h 27 % 0 mm 689.0 W/m2 CLR
17:14 2.4 °C -9.8 °C 34418.7 hPa NNW 9 km/h 9 km/h 27 % 0 mm 675.0 W/m2 CLR
17:19 2.5 °C -10.1 °C 34418.7 hPa NNE 26.9 km/h 26.9 km/h 26 % 0 mm 661.0 W/m2 CLR
17:24 2.4 °C -10.1 °C 34418.7 hPa North 20.9 km/h 20.9 km/h 26 % 0 mm 647.0 W/m2 CLR
17:29 2.3 °C -9.9 °C 34418.7 hPa ENE 7.7 km/h 7.7 km/h 27 % 0 mm 636.0 W/m2 CLR
17:34 2.3 °C -9.9 °C 34418.7 hPa North 20.9 km/h 20.9 km/h 27 % 0 mm 621.0 W/m2 CLR
17:39 2.4 °C -10.2 °C 34405.1 hPa NNW 9 km/h 9 km/h 26 % 0 mm 605.0 W/m2 CLR
17:44 2.4 °C -10.1 °C 34405.1 hPa NE 6 km/h 6 km/h 26 % 0 mm 594.0 W/m2 CLR
17:49 2.4 °C -10.1 °C 34405.1 hPa North 18.2 km/h 18.2 km/h 26 % 0 mm 582.0 W/m2 CLR
17:50 2.4 °C -10.1 °C 34405.1 hPa North 20.8 km/h 20.8 km/h 26 % 0 mm 578.0 W/m2 CLR
17:55 2.4 °C -10.1 °C 34405.1 hPa NNE 20.9 km/h 20.9 km/h 26 % 0 mm 564.0 W/m2 CLR
18:00 2.4 °C -10.4 °C 34405.1 hPa NNE 9 km/h 9 km/h 25 % 0 mm 552.0 W/m2 CLR
18:05 2.6 °C -10.3 °C 34405.1 hPa East 12.9 km/h 12.9 km/h 25 % 0 mm 536.0 W/m2 CLR
18:10 2.4 °C -10.4 °C 34405.1 hPa ENE 9 km/h 9 km/h 25 % 0 mm 522.0 W/m2 CLR
18:15 2.4 °C -10.1 °C 34405.1 hPa NE 25.9 km/h 25.9 km/h 26 % 0 mm 510.0 W/m2 CLR
18:20 2.5 °C -10.4 °C 34405.1 hPa North 20.9 km/h 20.9 km/h 25 % 0 mm 496.0 W/m2 CLR
18:25 2.6 °C -10.1 °C 34395 hPa NW 20.9 km/h 20.9 km/h 26 % 0 mm 476.0 W/m2 CLR
18:30 2.6 °C -10.4 °C 34395 hPa NE 17.9 km/h 17.9 km/h 25 % 0 mm 461.0 W/m2 CLR
18:35 2.5 °C -10.4 °C 34395 hPa NNW 23.8 km/h 23.8 km/h 25 % 0 mm 448.0 W/m2 CLR
18:40 2.6 °C -10.7 °C 34395 hPa NNE 9 km/h 9 km/h 24 % 0 mm 436.0 W/m2 CLR
18:45 2.4 °C -10.4 °C 34395 hPa NNE 3.1 km/h 3.1 km/h 25 % 0 mm 417.0 W/m2 CLR
18:50 2.4 °C -10.4 °C 34395 hPa NW 11.9 km/h 11.9 km/h 25 % 0 mm 401.0 W/m2 CLR
18:55 2.5 °C -10.4 °C 34395 hPa NNE 29.8 km/h 29.8 km/h 25 % 0 mm 387.0 W/m2 CLR
19:00 2.5 °C -10.4 °C 34395 hPa NNW 20.9 km/h 20.9 km/h 25 % 0 mm 374.0 W/m2 CLR
19:05 2.5 °C -10.4 °C 34395 hPa North 15.6 km/h 15.6 km/h 25 % 0 mm 357.0 W/m2 CLR
19:07 2.4 °C -10.4 °C 34395 hPa NW 20.9 km/h 20.9 km/h 25 % 0 mm 353.0 W/m2 CLR
19:12 2.6 °C -10.4 °C 34395 hPa NNW 18.2 km/h 18.2 km/h 25 % 0 mm 336.0 W/m2 CLR
19:17 2.4 °C -10.4 °C 34395 hPa NNE 11.9 km/h 13.5 km/h 25 % 0 mm 320.0 W/m2 CLR
19:22 2.4 °C -10.4 °C 34395 hPa NNW 25.9 km/h 25.9 km/h 25 % 0 mm 308.0 W/m2 CLR
19:27 2.3 °C -10.5 °C 34384.8 hPa NW 15 km/h   25 % 0 mm 292.0 W/m2 CLR
19:32 2.3 °C -10.2 °C 34395 hPa NNW 11.9 km/h 11.9 km/h 26 % 0 mm 276.0 W/m2 CLR
19:37 2.4 °C -10.4 °C 34384.8 hPa NNW 23.8 km/h 23.8 km/h 25 % 0 mm 260.0 W/m2 CLR
19:42 2.3 °C -10.6 °C 34384.8 hPa Calm     25 % 0 mm 246.0 W/m2 CLR
19:47 2.4 °C -10.5 °C 34384.8 hPa NNW 26.9 km/h 26.9 km/h 25 % 0 mm 234.0 W/m2 CLR
19:52 2.4 °C -10.4 °C 34384.8 hPa Calm     25 % 0 mm 218.0 W/m2 CLR
19:57 2.4 °C -10.5 °C 34384.8 hPa NNW 6 km/h   25 % 0 mm 199.0 W/m2 CLR
20:02 2.3 °C -10.5 °C 34384.8 hPa North 15.6 km/h 15.6 km/h 25 % 0 mm 181.0 W/m2 CLR
20:07 2.3 °C -10.9 °C 34384.8 hPa NNE 6 km/h 6 km/h 24 % 0 mm 167.0 W/m2 CLR
20:12 2.3 °C -10.9 °C 34384.8 hPa NNW 6 km/h 6 km/h 24 % 0 mm 149.0 W/m2 CLR
20:17 2.3 °C -11.3 °C 34384.8 hPa NNW 20.9 km/h 20.9 km/h 23 % 0 mm 135.0 W/m2 CLR
20:22 2.2 °C -10.9 °C 34384.8 hPa Calm     24 % 0 mm 116.0 W/m2 CLR
20:27 2.2 °C -10.9 °C 34384.8 hPa Calm     24 % 0 mm 102.0 W/m2 CLR
20:32 2.2 °C -10.9 °C 34384.8 hPa Calm     24 % 0 mm 90.0 W/m2 CLR
20:37 2.2 °C -11 °C 34384.8 hPa Calm     24 % 0 mm 76.0 W/m2 FEW
20:42 2.2 °C -10.1 °C 34384.8 hPa Calm     27 % 0 mm 62.0 W/m2 SCT
20:47 2.1 °C -8.7 °C 34384.8 hPa Calm     32 % 0 mm 32.0 W/m2 BKN
20:52 1.6 °C -8.5 °C 34384.8 hPa Calm     34 % 0 mm 40.0 W/m2 BKN
20:57 1.2 °C -8.2 °C 34384.8 hPa Calm     37 % 0 mm 33.0 W/m2 BKN
21:02 0.8 °C -8.2 °C 34384.8 hPa Calm     38 % 0 mm 25.0 W/m2 BKN
21:07 0.7 °C -8.2 °C 34384.8 hPa Calm     39 % 0 mm 19.0 W/m2 BKN
21:12 0.4 °C -8.1 °C 34384.8 hPa Calm     40 % 0 mm 16.0 W/m2 BKN
21:17 0.2 °C -7.9 °C 34384.8 hPa Calm     42 % 0 mm 12.0 W/m2 BKN
21:22 0 °C -7.9 °C 34384.8 hPa Calm     43 % 0 mm 11.0 W/m2 BKN
21:27 -0.1 °C -7.9 °C 34384.8 hPa Calm     43 % 0 mm 7.0 W/m2 BKN
21:32 -0.2 °C -7.9 °C 34384.8 hPa Calm     44 % 0 mm 5.0 W/m2 OVC
21:37 -0.5 °C -7.9 °C 34395 hPa Calm     45 % 0 mm 0.0 W/m2 OVC
21:42 -0.7 °C -7.9 °C 34395 hPa Calm     46 % 0 mm 0.0 W/m2 OVC
21:47 -0.8 °C -7.9 °C 34395 hPa Calm     46 % 0 mm 0.0 W/m2 CLR
21:52 -0.9 °C -7.9 °C 34395 hPa Calm     47 % 0 mm 0.0 W/m2 CLR
21:57 -1.1 °C -7.8 °C 34395 hPa Calm     48 % 0 mm 0.0 W/m2 CLR
22:02 -1.3 °C -7.8 °C 34395 hPa Calm     49 % 0 mm 0.0 W/m2 CLR
22:07 -1.4 °C -7.8 °C 34395 hPa Calm     50 % 0 mm 0.0 W/m2 CLR
22:12 -1.6 °C -7.9 °C 34405.1 hPa Calm     50 % 0 mm 0.0 W/m2 CLR
22:17 -1.7 °C -7.9 °C 34405.1 hPa Calm     51 % 0 mm 0.0 W/m2 CLR
22:22 -1.8 °C -7.9 °C 34405.1 hPa Calm     51 % 0 mm 0.0 W/m2 CLR
22:27 -1.8 °C -7.9 °C 34405.1 hPa Calm     52 % 0 mm 0.0 W/m2 CLR
22:32 -1.9 °C -7.9 °C 34418.7 hPa Calm     52 % 0 mm 0.0 W/m2 CLR
22:37 -2.1 °C -8.6 °C 34418.7 hPa Calm     49 % 0 mm 0.0 W/m2 CLR
22:42 -2.3 °C -8.6 °C 34418.7 hPa Calm     50 % 0 mm 0.0 W/m2 CLR
22:47 -2.4 °C -8.8 °C 34418.7 hPa Calm     50 % 0 mm 0.0 W/m2 CLR
22:52 -2.6 °C -8.9 °C 34418.7 hPa Calm     50 % 0 mm 0.0 W/m2 CLR
22:57 -2.7 °C -9.1 °C 34428.8 hPa Calm     50 % 0 mm 0.0 W/m2 CLR
23:02 -2.9 °C -9.2 °C 34428.8 hPa Calm     50 % 0 mm 0.0 W/m2 CLR
23:07 -3.1 °C -9.3 °C 34428.8 hPa Calm     50 % 0 mm 0.0 W/m2 CLR
23:12 -3.2 °C -8.9 °C 34428.8 hPa Calm     53 % 0 mm 0.0 W/m2 CLR
23:17 -3.3 °C -9.3 °C 34428.8 hPa Calm     51 % 0 mm 0.0 W/m2 CLR
23:22 -3.4 °C -9.7 °C 34428.8 hPa Calm     50 % 0 mm 0.0 W/m2 CLR
23:27 -3.6 °C -9.9 °C 34428.8 hPa Calm     49 % 0 mm 0.0 W/m2 CLR
23:32 -3.7 °C -9.6 °C 34428.8 hPa Calm     52 % 0 mm 0.0 W/m2 CLR
23:37 -3.8 °C -9.5 °C 34428.8 hPa Calm     53 % 0 mm 0.0 W/m2 CLR
23:42 -3.9 °C -9.9 °C 34428.8 hPa Calm     51 % 0 mm 0.0 W/m2 CLR
23:47 -3.9 °C -9.9 °C 34428.8 hPa Calm     51 % 0 mm 0.0 W/m2 CLR
23:52 -4 °C -10.1 °C 34428.8 hPa Calm     51 % 0 mm 0.0 W/m2 CLR
23:57 -4.1 °C -10.1 °C 34442.4 hPa Calm     51 % 0 mm 0.0 W/m2 CLR
Lo Temps de Massalio
Compliments of Weather Underground - 1.25 mb